www.chiptimeresults.com
13th Annual Caledon Kinetico Kids of Steel
Caledon, Ontario
Sunday May 26, 2013
Triathlon
Swim 400m, Bike 15 Km, Run 5 Km
  Entrants  Finishers 
Total  31 28
Male  20 19
Female  11 9
Unknown  0 0
                                                                                   Swim 400m, Bike 15 Km, Run 5 Km
                                                                      Swim           T1 + Bike + T2          Run
Place  Bib         Name              Total        Class         Place  Time  Pace   Place Time  Speed    Place Time  Pace
                                      Time       Placing                    /100m                Km/h                 /Km  City
----- ----- -----------------       -------- ---------------    -----------------   -----------------   ----------------- ----------
    1   328 Lionel Sanders             49:49 TM25-29    1/1        5    5:33  1:24     1   27:42 32.5     2   16:36  3:20                 
    2   332 Rui Xu                     50:12 TM16-19    1/2        4    5:22  1:21     2   27:53 32.3     3   16:58  3:24                 
    3   325 Andrew Beardsall           51:34 TM16-19    2/2        7    5:45  1:27     3   28:50 31.2     4   16:59  3:24                 
    4   326 Connor Darlington      P   52:12 TM20-24    1/2        2    5:13  1:19     6   29:41 30.3     1   16:19  3:16                 
    5   327 David Hopton               53:17 TM20-24    2/2        3    5:21  1:21     4   29:23 30.6     6   18:34  3:43                 
    6   331 Hans Porten                56:22 TM55-59    1/4        8    6:01  1:31     5   29:38 30.4     7   20:44  4:09 Brampton        
    7   302 Kirsten Marchant           56:31 TF20-24    1/2        6    5:37  1:25     9   32:32 27.7     5   18:23  3:41                 
    8   301 Hillary Bell               58:24 TF20-24    2/2        1    4:57  1:15     7   31:42 28.4     8   21:46  4:22                 
    9   319 Craig Aguiar-Winter      1:03:19 TM35-39    1/2       13    7:47  1:57    10   33:34 26.8     9   21:59  4:24 Caledon         
   10   316 James Hunter             1:04:45 TM45-49    1/1       19    8:55  2:14     8   31:53 28.2    11   23:57  4:48 Caledon Village 
   11   317 Christopher Kemp         1:06:47 TM40-44    1/4       10    6:27  1:37    13   36:15 24.8    12   24:05  4:49                 
   12   330 Phillip Adsetts          1:07:10 TM55-59    2/4       17    8:29  2:08    12   34:59 25.7    10   23:44  4:45                 
   13   329 Steve Benson             1:08:29 TM50-54    1/2       12    7:33  1:54    11   33:39 26.7    16   27:18  5:28                 
   14   320 Luis Lopez               1:09:52 TM35-39    2/2       11    7:07  1:47    15   36:37 24.6    15   26:10  5:14 Bolton          
   15   306 Nancy Nieuweboer         1:12:06 TF45-49    1/2       21    9:00  2:15    17   39:01 23.1    13   24:05  4:49 Toronto         
   16   322 David Uglow              1:12:33 TM55-59    3/4       16    8:24  2:06    14   36:29 24.7    18   27:41  5:33 Schomberg       
   17   323 Brian Bird               1:13:44 TM55-59    4/4       24    9:20  2:20    16   38:36 23.3    14   25:49  5:10 Caledon         
   18   324 Miguel Vadillo           1:16:11 TM40-44    2/4        9    6:03  1:31    18   40:34 22.2    20   29:35  5:55                 
   19   321 Michael Dean             1:20:02 TM40-44    3/4       22    9:12  2:18    21   43:20 20.8    17   27:31  5:31 Caledon         
   20   333 Tamara Beckstead         1:20:10 TF45-49    2/2       15    8:13  2:04    19   40:44 22.1    21   31:14  6:15                 
   21   318 Ben Adams                1:24:51 TM30-34    1/1       27    9:57  2:30    23   46:30 19.4    19   28:25  5:41                 
   22   314 Michael Koehler          1:28:13 TM40-44    4/4       20    8:56  2:14    20   43:01 20.9    26   36:17  7:16 Caledon         
   23   309 Ali Miller               1:30:06 TF35-39    1/1       14    8:09  2:03    22   46:23 19.4    25   35:35  7:07 Bolton          
   24   308 Kelly Brown              1:30:58 TF50-54    1/2       23    9:18  2:20    24   47:18 19.0    23   34:23  6:53 Cobourg         
   25   305 Alice Znava              1:33:32 TF40-44    1/2       28   10:04  2:31    25   50:29 17.8    22   32:59  6:36 Alliston        
   26   315 Gary Walters             1:35:32 TM50-54    2/2       18    8:52  2:13    26   52:04 17.3    24   34:38  6:56 Caledon         
   27   304 Jacqueline Whitney       1:38:51 TF40-44    2/2       26    9:50  2:28    27   52:44 17.1    27   36:18  7:16 Erin            
   28   307 Jill Hansen              1:49:41 TF50-54    2/2       25    9:48  2:27    28 1:03:15 14.2    28   36:40  7:20 Richmond